createdAt,value
2023-02-12T00:00:52.296Z,12.50
2023-02-12T00:03:22.327Z,13.15
2023-02-12T00:05:52.500Z,11.50
2023-02-12T00:08:22.672Z,10.35
2023-02-12T00:10:53.071Z,11.55
2023-02-12T00:13:26.580Z,11.25
2023-02-12T00:15:59.525Z,11.68
2023-02-12T00:18:29.656Z,8.52
2023-02-12T00:21:03.058Z,8.82
2023-02-12T00:23:33.120Z,9.73
2023-02-12T00:26:03.282Z,6.80
2023-02-12T00:28:33.338Z,6.57
2023-02-12T00:31:11.145Z,7.57
2023-02-12T00:33:41.386Z,6.88
2023-02-12T00:36:13.063Z,7.95
2023-02-12T00:38:43.214Z,5.93
2023-02-12T00:41:13.585Z,7.20
2023-02-12T00:43:43.820Z,6.38
2023-02-12T00:46:18.107Z,6.95
2023-02-12T00:48:48.522Z,5.93
2023-02-12T00:51:18.671Z,6.20
2023-02-12T00:53:48.798Z,7.22
2023-02-12T00:56:19.051Z,8.32
2023-02-12T00:58:49.198Z,8.55
2023-02-12T01:01:22.425Z,7.13
2023-02-12T01:03:52.471Z,10.57
2023-02-12T01:06:22.762Z,8.88
2023-02-12T01:08:54.430Z,8.93
2023-02-12T01:11:24.932Z,7.40
2023-02-12T01:13:55.109Z,10.55
2023-02-12T01:16:28.206Z,6.63
2023-02-12T01:18:58.866Z,8.38
2023-02-12T01:21:33.450Z,7.30
2023-02-12T01:24:04.386Z,8.93
2023-02-12T01:26:38.235Z,9.38
2023-02-12T01:29:10.321Z,10.82
2023-02-12T01:31:43.954Z,10.85
2023-02-12T01:34:14.861Z,10.70
2023-02-12T01:36:45.174Z,8.95
2023-02-12T01:39:15.819Z,8.85
2023-02-12T01:41:47.841Z,7.15
2023-02-12T01:44:21.255Z,8.40
2023-02-12T01:46:59.120Z,9.35
2023-02-12T01:52:07.977Z,9.57
2023-02-12T01:54:40.682Z,9.45
2023-02-12T01:57:12.498Z,9.45
2023-02-12T01:59:44.369Z,12.27
2023-02-12T02:02:17.799Z,11.20
2023-02-12T02:04:52.930Z,10.80
2023-02-12T02:07:23.172Z,10.27
2023-02-12T02:09:53.632Z,10.70
2023-02-12T02:12:36.336Z,10.38
2023-02-12T02:15:09.121Z,9.98
2023-02-12T02:17:53.683Z,6.15
2023-02-12T02:20:50.392Z,6.28
2023-02-12T02:24:02.012Z,6.07
2023-02-12T02:26:51.752Z,5.97
2023-02-12T02:29:45.705Z,7.15
2023-02-12T02:32:23.921Z,7.22
2023-02-12T02:35:01.934Z,6.55
2023-02-12T02:37:35.999Z,7.35
2023-02-12T02:40:14.621Z,6.78
2023-02-12T02:42:49.994Z,7.93
2023-02-12T02:45:23.994Z,8.18
2023-02-12T02:48:01.316Z,10.52
2023-02-12T02:50:34.481Z,9.18
2023-02-12T02:53:07.773Z,9.73
2023-02-12T02:55:44.187Z,9.43
2023-02-12T02:58:17.629Z,9.65
2023-02-12T03:00:53.012Z,10.32
2023-02-12T03:03:27.759Z,8.45
2023-02-12T03:06:02.876Z,8.38
2023-02-12T03:08:35.054Z,8.05
2023-02-12T03:11:13.148Z,7.65
2023-02-12T03:13:49.312Z,7.57
2023-02-12T03:16:23.217Z,7.70
2023-02-12T03:18:59.968Z,8.00
2023-02-12T03:21:33.327Z,8.35
2023-02-12T03:24:08.222Z,9.68
2023-02-12T03:26:45.772Z,8.85
2023-02-12T03:29:16.135Z,9.23
2023-02-12T03:31:57.143Z,6.50
2023-02-12T03:34:42.569Z,9.45
2023-02-12T03:37:17.334Z,7.88
2023-02-12T03:39:56.319Z,6.53
2023-02-12T03:42:36.122Z,7.80
2023-02-12T03:45:11.778Z,9.35
2023-02-12T03:47:49.493Z,7.80
2023-02-12T03:50:29.290Z,9.70
2023-02-12T03:52:59.583Z,8.80
2023-02-12T03:55:29.977Z,9.50
2023-02-12T03:58:04.325Z,8.75
2023-02-12T04:00:34.597Z,11.35
2023-02-12T04:03:04.937Z,8.55
2023-02-12T04:05:37.554Z,7.82
2023-02-12T04:08:10.485Z,8.50
2023-02-12T04:10:49.727Z,7.75
2023-02-12T04:13:24.514Z,8.45
2023-02-12T04:16:08.249Z,14.55
2023-02-12T04:18:44.107Z,8.63
2023-02-12T04:21:33.274Z,8.80
2023-02-12T04:24:12.642Z,7.60
2023-02-12T04:26:53.543Z,8.65
2023-02-12T04:29:35.154Z,10.38
2023-02-12T04:32:14.789Z,20.42
2023-02-12T04:34:52.124Z,9.98
2023-02-12T04:37:29.605Z,9.60
2023-02-12T04:40:01.483Z,9.80
2023-02-12T04:42:31.717Z,9.27
2023-02-12T04:45:01.817Z,7.85
2023-02-12T04:47:32.213Z,10.93
2023-02-12T04:50:02.429Z,10.88
2023-02-12T04:52:35.122Z,8.48
2023-02-12T04:55:05.670Z,9.95
2023-02-12T04:57:35.791Z,10.73
2023-02-12T05:00:06.390Z,9.25
2023-02-12T05:02:37.720Z,9.18
2023-02-12T05:05:08.293Z,11.95
2023-02-12T05:07:43.849Z,11.40
2023-02-12T05:10:14.589Z,10.13
2023-02-12T05:12:44.881Z,10.23
2023-02-12T05:15:15.214Z,9.45
2023-02-12T05:17:45.951Z,11.00
2023-02-12T05:20:16.961Z,8.15
2023-02-12T05:22:49.643Z,8.80
2023-02-12T05:25:19.958Z,10.48
2023-02-12T05:27:50.052Z,8.80
2023-02-12T05:30:20.935Z,9.52
2023-02-12T05:32:51.295Z,9.85
2023-02-12T05:35:21.585Z,8.93
2023-02-12T05:37:54.311Z,10.35
2023-02-12T05:40:24.793Z,10.05
2023-02-12T05:42:55.204Z,9.13
2023-02-12T05:45:28.044Z,10.27
2023-02-12T05:47:58.390Z,9.32
2023-02-12T05:50:28.728Z,9.90
2023-02-12T05:53:03.119Z,10.75
2023-02-12T05:55:33.587Z,10.65
2023-02-12T05:58:03.626Z,8.77
2023-02-12T06:00:33.837Z,11.18
2023-02-12T06:03:03.936Z,9.30
2023-02-12T06:05:34.186Z,10.52
2023-02-12T06:08:07.275Z,10.07
2023-02-12T06:10:38.941Z,10.45
2023-02-12T06:13:09.071Z,10.15
2023-02-12T06:15:39.832Z,8.50
2023-02-12T06:18:09.869Z,10.15
2023-02-12T06:20:43.697Z,10.93
2023-02-12T06:23:19.569Z,9.57
2023-02-12T06:25:49.774Z,12.07
2023-02-12T06:28:20.586Z,12.95
2023-02-12T06:30:51.194Z,11.77
2023-02-12T06:33:21.377Z,10.82
2023-02-12T06:35:51.802Z,10.60
2023-02-12T06:38:24.494Z,9.43
2023-02-12T06:40:54.628Z,8.25
2023-02-12T06:43:24.739Z,8.95
2023-02-12T06:45:55.194Z,9.35
2023-02-12T06:48:25.684Z,10.15
2023-02-12T06:50:56.159Z,9.05
2023-02-12T06:53:28.924Z,8.68
2023-02-12T06:55:59.323Z,8.85
2023-02-12T06:58:29.363Z,10.70
2023-02-12T07:00:59.644Z,8.68
2023-02-12T07:03:30.005Z,11.57
2023-02-12T07:06:00.399Z,10.50
2023-02-12T07:08:33.059Z,10.82
2023-02-12T07:11:03.559Z,9.50
2023-02-12T07:13:35.005Z,9.00
2023-02-12T07:16:10.924Z,9.85
2023-02-12T07:18:42.218Z,9.38
2023-02-12T07:23:50.984Z,9.18
2023-02-12T07:26:23.473Z,13.02
2023-02-12T07:28:54.185Z,12.13
2023-02-12T07:31:26.001Z,10.27
2023-02-12T07:33:57.845Z,12.25
2023-02-12T07:36:29.240Z,13.82
2023-02-12T07:39:02.445Z,10.10
2023-02-12T07:41:34.717Z,9.77
2023-02-12T07:44:09.425Z,11.15
2023-02-12T07:46:41.940Z,9.95
2023-02-12T07:49:17.109Z,9.90
2023-02-12T07:51:48.754Z,10.38
2023-02-12T07:54:24.390Z,10.77
2023-02-12T07:56:54.613Z,8.38
2023-02-12T07:59:24.756Z,9.95
2023-02-12T08:01:56.498Z,12.25
2023-02-12T08:04:28.257Z,9.55
2023-02-12T08:06:59.496Z,11.25
2023-02-12T08:12:02.856Z,12.00
2023-02-12T08:14:33.497Z,9.65
2023-02-12T08:17:03.722Z,9.68
2023-02-12T08:19:34.230Z,10.77
2023-02-12T08:22:06.801Z,15.65
2023-02-12T08:24:39.851Z,13.68
2023-02-12T08:27:10.129Z,13.07
2023-02-12T08:29:40.467Z,10.77
2023-02-12T08:32:14.140Z,9.60
2023-02-12T08:34:44.423Z,9.70
2023-02-12T08:37:14.983Z,12.18
2023-02-12T08:39:50.527Z,12.60
2023-02-12T08:42:23.079Z,11.20
2023-02-12T08:44:53.106Z,9.93
2023-02-12T08:47:23.323Z,14.40
2023-02-12T08:49:53.431Z,14.02
2023-02-12T08:52:23.621Z,11.15
2023-02-12T08:54:56.545Z,10.70
2023-02-12T08:57:26.669Z,10.60
2023-02-12T08:59:56.891Z,13.57
2023-02-12T09:02:27.182Z,16.45
2023-02-12T09:04:57.551Z,15.77
2023-02-12T09:07:27.841Z,17.73
2023-02-12T09:10:00.444Z,13.63
2023-02-12T09:12:30.807Z,18.20
2023-02-12T09:15:00.885Z,13.68
2023-02-12T09:17:31.141Z,13.63
2023-02-12T09:20:01.601Z,15.63
2023-02-12T09:22:31.692Z,17.33
2023-02-12T09:25:04.562Z,16.98
2023-02-12T09:27:34.908Z,16.73
2023-02-12T09:30:05.008Z,16.83
2023-02-12T09:32:35.329Z,14.43
2023-02-12T09:35:05.376Z,14.23
2023-02-12T09:37:35.458Z,13.32
2023-02-12T09:40:09.701Z,12.73
2023-02-12T09:42:55.218Z,11.35
2023-02-12T09:45:29.388Z,12.70
2023-02-12T09:48:06.373Z,13.48
2023-02-12T09:50:48.836Z,13.55
2023-02-12T09:53:22.535Z,13.55
2023-02-12T09:55:55.486Z,14.45
2023-02-12T09:58:34.370Z,11.90
2023-02-12T10:01:08.116Z,13.48
2023-02-12T10:03:38.258Z,14.52
2023-02-12T10:06:11.530Z,14.52
2023-02-12T10:08:59.692Z,14.38
2023-02-12T10:11:53.300Z,16.40
2023-02-12T10:14:44.586Z,14.82
2023-02-12T10:17:22.768Z,16.13
2023-02-12T10:20:09.607Z,15.43
2023-02-12T10:22:56.935Z,14.63
2023-02-12T10:25:37.164Z,11.80
2023-02-12T10:28:15.537Z,15.55
2023-02-12T10:30:51.046Z,22.42
2023-02-12T10:33:27.697Z,19.63
2023-02-12T10:36:03.935Z,18.13
2023-02-12T10:38:38.072Z,16.52
2023-02-12T10:41:08.331Z,14.57
2023-02-12T10:43:41.047Z,17.35
2023-02-12T10:46:16.585Z,17.63
2023-02-12T10:48:49.700Z,16.65
2023-02-12T10:51:37.699Z,16.85
2023-02-12T10:54:36.093Z,13.20
2023-02-12T10:57:14.023Z,15.98
2023-02-12T10:59:48.029Z,15.88
2023-02-12T11:02:27.678Z,17.50
2023-02-12T11:04:59.283Z,18.00
2023-02-12T11:07:30.817Z,18.30
2023-02-12T11:10:01.166Z,17.63
2023-02-12T11:12:35.979Z,16.95
2023-02-12T11:15:17.162Z,16.85
2023-02-12T11:17:57.330Z,18.38
2023-02-12T11:20:29.655Z,19.60
2023-02-12T11:23:01.589Z,18.17
2023-02-12T11:25:34.189Z,14.48
2023-02-12T11:28:18.700Z,15.85
2023-02-12T11:30:59.831Z,19.60
2023-02-12T11:33:35.723Z,19.98
2023-02-12T11:36:10.479Z,18.20
2023-02-12T11:38:50.191Z,19.70
2023-02-12T11:41:28.701Z,19.20
2023-02-12T11:43:59.627Z,18.65
2023-02-12T11:46:32.457Z,16.23
2023-02-12T11:49:03.003Z,16.98
2023-02-12T11:51:35.195Z,17.67
2023-02-12T11:54:08.361Z,16.48
2023-02-12T11:56:46.796Z,17.10
2023-02-12T11:59:35.161Z,14.63
2023-02-12T12:02:19.646Z,20.38
2023-02-12T12:04:53.446Z,17.55
2023-02-12T12:07:28.599Z,15.38
2023-02-12T12:10:02.686Z,16.60
2023-02-12T12:12:40.719Z,17.15
2023-02-12T12:15:32.193Z,18.48
2023-02-12T12:18:24.833Z,19.30
2023-02-12T12:20:58.090Z,16.20
2023-02-12T12:23:34.650Z,19.25
2023-02-12T12:26:11.588Z,17.55
2023-02-12T12:28:47.486Z,17.38
2023-02-12T12:31:21.596Z,18.40
2023-02-12T12:33:59.937Z,17.88
2023-02-12T12:37:08.985Z,20.02
2023-02-12T12:39:44.394Z,18.48
2023-02-12T12:42:49.214Z,18.08
2023-02-12T12:45:34.058Z,18.13
2023-02-12T12:48:17.229Z,19.23
2023-02-12T12:51:05.393Z,18.60
2023-02-12T12:53:41.666Z,18.20
2023-02-12T12:56:40.749Z,22.90
2023-02-12T12:59:35.516Z,18.13
2023-02-12T13:02:41.122Z,17.98
2023-02-12T13:05:48.541Z,18.83
2023-02-12T13:08:31.438Z,19.10
2023-02-12T13:11:08.178Z,17.33
2023-02-12T13:13:40.590Z,19.02
2023-02-12T13:16:18.383Z,18.52
2023-02-12T13:18:59.048Z,18.67
2023-02-12T13:21:41.988Z,19.92
2023-02-12T13:24:26.547Z,19.15
2023-02-12T13:26:59.552Z,19.48
2023-02-12T13:29:35.281Z,17.25
2023-02-12T13:32:08.927Z,20.08
2023-02-12T13:34:40.890Z,15.85
2023-02-12T13:37:20.251Z,20.38
2023-02-12T13:39:54.386Z,17.30
2023-02-12T13:42:39.804Z,18.05
2023-02-12T13:45:21.905Z,20.77
2023-02-12T13:48:05.229Z,17.00
2023-02-12T13:50:43.953Z,18.70
2023-02-12T13:53:24.922Z,18.83
2023-02-12T13:56:09.797Z,18.05
2023-02-12T13:58:53.882Z,18.65
2023-02-12T14:01:47.603Z,20.02
2023-02-12T14:04:32.943Z,17.27
2023-02-12T14:07:06.803Z,22.90
2023-02-12T14:09:40.956Z,17.38
2023-02-12T14:12:18.002Z,17.42
2023-02-12T14:14:50.569Z,17.05
2023-02-12T14:17:53.392Z,16.95
2023-02-12T14:20:32.523Z,16.15
2023-02-12T14:23:24.605Z,17.52
2023-02-12T14:26:11.647Z,19.83
2023-02-12T14:28:59.359Z,18.17
2023-02-12T14:31:39.880Z,16.30
2023-02-12T14:34:42.436Z,15.82
2023-02-12T14:37:37.767Z,14.15
2023-02-12T14:40:54.025Z,16.08
2023-02-12T14:43:33.674Z,17.00
2023-02-12T14:46:33.559Z,17.10
2023-02-12T14:49:07.721Z,16.58
2023-02-12T14:51:45.850Z,15.43
2023-02-12T14:54:21.506Z,15.60
2023-02-12T14:56:55.712Z,15.88
2023-02-12T14:59:28.452Z,16.58
2023-02-12T15:02:02.404Z,18.60
2023-02-12T15:04:40.046Z,16.92
2023-02-12T15:09:50.809Z,15.85
2023-02-12T15:12:27.468Z,16.70
2023-02-12T15:15:06.947Z,15.70
2023-02-12T15:17:40.947Z,16.25
2023-02-12T15:20:23.345Z,19.63
2023-02-12T15:22:53.693Z,19.20
2023-02-12T15:25:29.524Z,19.85
2023-02-12T15:28:02.528Z,20.17
2023-02-12T15:30:35.298Z,17.48
2023-02-12T15:33:07.981Z,19.17
2023-02-12T15:35:47.115Z,20.98
2023-02-12T15:38:27.961Z,19.77
2023-02-12T15:41:00.304Z,18.75
2023-02-12T15:43:35.136Z,21.65
2023-02-12T15:46:07.985Z,19.42
2023-02-12T15:48:40.722Z,25.48
2023-02-12T15:51:21.188Z,21.23
2023-02-12T15:53:51.795Z,20.77
2023-02-12T15:56:23.145Z,19.45
2023-02-12T15:58:55.544Z,19.90
2023-02-12T16:01:27.251Z,23.48
2023-02-12T16:04:00.233Z,20.35
2023-02-12T16:06:36.844Z,23.48
2023-02-12T16:09:11.686Z,24.05
2023-02-12T16:11:42.248Z,20.27
2023-02-12T16:14:23.472Z,19.48
2023-02-12T16:16:55.636Z,18.50
2023-02-12T16:19:43.493Z,23.13
2023-02-12T16:22:22.653Z,19.55
2023-02-12T16:24:56.642Z,18.77
2023-02-12T16:27:30.504Z,19.45
2023-02-12T16:30:02.849Z,20.15
2023-02-12T16:32:44.084Z,18.70
2023-02-12T16:35:31.664Z,20.90
2023-02-12T16:38:06.008Z,19.58
2023-02-12T16:40:39.609Z,22.88
2023-02-12T16:43:29.370Z,23.25
2023-02-12T16:46:07.107Z,22.55
2023-02-12T16:51:24.872Z,23.60
2023-02-12T16:53:59.178Z,21.13
2023-02-12T16:56:32.711Z,18.70
2023-02-12T16:59:05.048Z,23.48
2023-02-12T17:01:37.514Z,22.02
2023-02-12T17:04:10.743Z,18.25
2023-02-12T17:06:40.838Z,22.67
2023-02-12T17:09:13.904Z,22.88
2023-02-12T17:11:45.412Z,19.48
2023-02-12T17:14:19.341Z,23.92
2023-02-12T17:16:50.126Z,24.13
2023-02-12T17:19:20.412Z,27.33
2023-02-12T17:21:54.710Z,64.97
2023-02-12T17:24:29.531Z,26.67
2023-02-12T17:27:00.201Z,24.60
2023-02-12T17:29:31.351Z,22.75
2023-02-12T17:34:39.713Z,26.48
2023-02-12T17:37:17.058Z,22.55
2023-02-12T17:39:49.839Z,26.13
2023-02-12T17:42:20.379Z,25.63
2023-02-12T17:44:50.612Z,26.20
2023-02-12T17:47:20.919Z,27.77
2023-02-12T17:49:51.175Z,27.23
2023-02-12T17:52:21.606Z,30.33
2023-02-12T17:55:06.723Z,29.42
2023-02-12T17:57:36.866Z,24.77
2023-02-12T18:00:07.937Z,29.77
2023-02-12T18:02:38.133Z,29.73
2023-02-12T18:05:08.818Z,28.00
2023-02-12T18:07:39.485Z,31.83
2023-02-12T18:10:14.028Z,28.42
2023-02-12T18:12:44.328Z,31.95
2023-02-12T18:15:15.017Z,32.47
2023-02-12T18:17:45.699Z,35.05
2023-02-12T18:20:16.750Z,31.80
2023-02-12T18:22:50.258Z,30.50
2023-02-12T18:25:23.117Z,33.55
2023-02-12T18:27:53.538Z,33.33
2023-02-12T18:30:23.758Z,31.40
2023-02-12T18:32:54.279Z,29.35
2023-02-12T18:35:24.574Z,31.33
2023-02-12T18:37:54.888Z,32.50
2023-02-12T18:40:28.240Z,33.58
2023-02-12T18:42:58.477Z,30.98
2023-02-12T18:45:28.753Z,31.85
2023-02-12T18:48:01.796Z,30.27
2023-02-12T18:50:31.850Z,33.55
2023-02-12T18:53:02.136Z,31.75
2023-02-12T18:55:34.905Z,31.27
2023-02-12T18:58:05.126Z,29.30
2023-02-12T19:00:35.454Z,34.53
2023-02-12T19:03:05.667Z,31.75
2023-02-12T19:05:36.079Z,29.92
2023-02-12T19:08:06.445Z,30.83
2023-02-12T19:10:42.323Z,32.60
2023-02-12T19:13:12.643Z,29.50
2023-02-12T19:15:43.237Z,30.33
2023-02-12T19:18:16.547Z,36.67
2023-02-12T19:20:46.719Z,28.95
2023-02-12T19:23:17.019Z,28.08
2023-02-12T19:25:49.758Z,29.38
2023-02-12T19:28:20.251Z,30.10
2023-02-12T19:30:53.789Z,29.92
2023-02-12T19:33:24.707Z,27.83
2023-02-12T19:35:54.851Z,29.13
2023-02-12T19:38:25.061Z,25.70
2023-02-12T19:41:05.147Z,30.85
2023-02-12T19:43:35.752Z,29.25
2023-02-12T19:46:06.972Z,26.90
2023-02-12T19:51:08.942Z,28.25
2023-02-12T19:53:39.509Z,24.15
2023-02-12T19:56:12.804Z,27.90
2023-02-12T19:58:43.362Z,27.35
2023-02-12T20:01:20.399Z,28.20
2023-02-12T20:03:51.774Z,30.42
2023-02-12T20:06:24.866Z,28.35
2023-02-12T20:09:05.897Z,31.50
2023-02-12T20:11:40.465Z,30.75
2023-02-12T20:14:12.761Z,31.60
2023-02-12T20:16:46.717Z,27.98
2023-02-12T20:19:19.642Z,31.10
2023-02-12T20:21:55.852Z,31.70
2023-02-12T20:24:26.901Z,26.70
2023-02-12T20:27:00.739Z,28.77
2023-02-12T20:29:31.008Z,27.65
2023-02-12T20:32:01.250Z,27.75
2023-02-12T20:34:36.692Z,30.73
2023-02-12T20:37:14.166Z,33.60
2023-02-12T20:39:44.519Z,30.38
2023-02-12T20:42:17.306Z,36.40
2023-02-12T20:44:49.928Z,31.02
2023-02-12T20:47:20.205Z,30.50
2023-02-12T20:49:50.310Z,27.60
2023-02-12T20:52:20.975Z,32.03
2023-02-12T20:54:51.076Z,28.73
2023-02-12T20:57:23.806Z,30.33
2023-02-12T20:59:54.135Z,30.13
2023-02-12T21:02:24.158Z,31.00
2023-02-12T21:04:56.231Z,34.10
2023-02-12T21:07:26.755Z,31.73
2023-02-12T21:09:59.403Z,32.22
2023-02-12T21:12:32.134Z,28.30
2023-02-12T21:15:02.487Z,31.80
2023-02-12T21:17:35.812Z,32.47
2023-02-12T21:20:06.118Z,32.80
2023-02-12T21:22:41.956Z,32.55
2023-02-12T21:25:14.679Z,33.42
2023-02-12T21:27:59.700Z,36.15
2023-02-12T21:30:30.258Z,30.85
2023-02-12T21:33:00.562Z,33.00
2023-02-12T21:35:31.086Z,30.23
2023-02-12T21:38:01.275Z,30.50
2023-02-12T21:40:31.936Z,29.75
2023-02-12T21:43:04.680Z,30.27
2023-02-12T21:45:34.927Z,29.63
2023-02-12T21:48:05.287Z,32.15
2023-02-12T21:50:37.692Z,35.28
2023-02-12T21:53:08.003Z,31.73
2023-02-12T21:55:39.567Z,32.55
2023-02-12T21:58:12.248Z,31.98
2023-02-12T22:00:42.737Z,33.53
2023-02-12T22:03:13.079Z,36.50
2023-02-12T22:05:43.266Z,31.63
2023-02-12T22:08:13.687Z,34.05
2023-02-12T22:10:44.135Z,30.08
2023-02-12T22:13:16.857Z,29.75
2023-02-12T22:15:47.193Z,29.02
2023-02-12T22:18:17.271Z,28.73
2023-02-12T22:20:47.355Z,32.90
2023-02-12T22:23:17.945Z,28.77
2023-02-12T22:25:48.635Z,33.08
2023-02-12T22:28:21.473Z,31.67
2023-02-12T22:30:51.596Z,29.83
2023-02-12T22:33:21.677Z,29.48
2023-02-12T22:35:51.881Z,28.42
2023-02-12T22:38:21.986Z,30.65
2023-02-12T22:40:55.990Z,31.98
2023-02-12T22:43:31.088Z,34.08
2023-02-12T22:46:01.510Z,32.45
2023-02-12T22:48:37.770Z,35.72
2023-02-12T22:51:16.744Z,31.65
2023-02-12T22:53:46.933Z,32.25
2023-02-12T22:56:18.874Z,31.58
2023-02-12T22:58:52.018Z,31.92
2023-02-12T23:01:22.688Z,32.92
2023-02-12T23:03:53.182Z,32.20
2023-02-12T23:06:25.367Z,29.75
2023-02-12T23:08:56.524Z,32.35
2023-02-12T23:11:26.819Z,31.88
2023-02-12T23:14:01.248Z,28.98
2023-02-12T23:16:31.602Z,33.55
2023-02-12T23:19:04.839Z,32.22
2023-02-12T23:21:35.402Z,29.67
2023-02-12T23:24:05.696Z,32.70
2023-02-12T23:26:36.840Z,29.55
2023-02-12T23:29:09.599Z,33.58
2023-02-12T23:31:40.060Z,34.25
2023-02-12T23:34:10.463Z,32.53
2023-02-12T23:36:40.622Z,31.10
2023-02-12T23:39:11.099Z,29.58
2023-02-12T23:41:41.435Z,30.60
2023-02-12T23:44:15.008Z,31.63
2023-02-12T23:46:45.157Z,32.30
2023-02-12T23:49:15.262Z,32.08
2023-02-12T23:51:46.538Z,30.70
2023-02-12T23:54:17.051Z,32.92
2023-02-12T23:56:47.301Z,33.80
2023-02-12T23:59:20.020Z,34.03
